createdAt,value
2018-07-08T00:00:40.008Z,65.23
2018-07-08T00:02:40.468Z,65.62
2018-07-08T00:03:40.460Z,65.43
2018-07-08T00:05:36.430Z,65.53
2018-07-08T00:06:36.443Z,66.26
2018-07-08T00:08:34.343Z,66.74
2018-07-08T00:09:34.345Z,66.74
2018-07-08T00:11:34.783Z,66.46
2018-07-08T00:12:34.810Z,66.93
2018-07-08T00:14:32.787Z,67.03
2018-07-08T00:15:32.769Z,67.03
2018-07-08T00:17:28.686Z,67.61
2018-07-08T00:18:29.202Z,67.99
2018-07-08T00:20:27.220Z,67.70
2018-07-08T00:21:27.679Z,68.28
2018-07-08T00:23:24.999Z,67.90
2018-07-08T00:24:24.930Z,68.76
2018-07-08T00:26:23.886Z,69.20
2018-07-08T00:27:22.894Z,69.14
2018-07-08T00:29:20.852Z,69.30
2018-07-08T00:30:20.827Z,69.20
2018-07-08T00:32:18.806Z,69.40
2018-07-08T00:33:18.778Z,70.07
2018-07-08T00:35:18.252Z,70.17
2018-07-08T00:36:16.916Z,69.68
2018-07-08T00:38:15.383Z,70.45
2018-07-08T00:39:14.848Z,70.64
2018-07-08T00:41:12.958Z,70.55
2018-07-08T00:42:12.953Z,71.03
2018-07-08T00:44:13.926Z,71.03
2018-07-08T00:45:13.420Z,71.12
2018-07-08T00:47:11.883Z,71.51
2018-07-08T00:48:11.597Z,71.51
2018-07-08T00:52:01.863Z,71.89
2018-07-08T00:56:38.444Z,73.43
2018-07-08T00:57:40.650Z,73.24
2018-07-08T00:59:42.416Z,73.04
2018-07-08T01:00:41.434Z,74.01
2018-07-08T01:02:39.680Z,73.97
2018-07-08T01:03:39.584Z,74.44
2018-07-08T01:05:35.688Z,74.44
2018-07-08T01:07:52.443Z,75.02
2018-07-08T01:10:12.944Z,74.64
2018-07-08T01:11:17.865Z,74.83
2018-07-08T01:15:34.962Z,75.40
2018-07-08T01:16:35.444Z,75.89
2018-07-08T01:18:31.170Z,75.98
2018-07-08T01:19:30.655Z,76.27
2018-07-08T01:21:31.587Z,76.37
2018-07-08T01:22:31.602Z,76.37
2018-07-08T01:24:28.621Z,76.46
2018-07-08T01:25:27.757Z,76.84
2018-07-08T01:27:28.046Z,77.13
2018-07-08T01:28:27.237Z,77.23
2018-07-08T01:30:26.740Z,77.51
2018-07-08T01:31:26.174Z,77.51
2018-07-08T01:33:25.300Z,78.00
2018-07-08T01:34:23.374Z,78.19
2018-07-08T01:36:21.827Z,78.86
2018-07-08T01:37:21.317Z,78.77
2018-07-08T01:39:20.306Z,79.82
2018-07-08T01:40:19.821Z,79.72
2018-07-08T01:42:16.230Z,80.11
2018-07-08T01:43:15.226Z,80.49
2018-07-08T01:45:17.706Z,80.83
2018-07-08T01:46:16.703Z,80.83
2018-07-08T01:48:15.165Z,81.31
2018-07-08T01:49:13.796Z,81.60
2018-07-08T01:51:11.762Z,81.41
2018-07-08T01:52:11.733Z,81.02
2018-07-08T01:54:12.207Z,81.22
2018-07-08T01:55:12.196Z,81.12
2018-07-08T01:57:10.677Z,81.41
2018-07-08T01:58:10.130Z,81.51
2018-07-08T02:00:11.733Z,81.98
2018-07-08T02:01:10.593Z,81.70
2018-07-08T02:03:09.054Z,81.89
2018-07-08T02:04:08.541Z,82.46
2018-07-08T02:06:07.505Z,83.04
2018-07-08T02:07:06.767Z,83.23
2018-07-08T02:09:05.138Z,84.00
2018-07-08T02:10:04.780Z,83.81
2018-07-08T02:12:03.247Z,84.09
2018-07-08T02:13:02.751Z,84.77
2018-07-08T02:15:00.729Z,84.48
2018-07-08T02:16:00.690Z,84.67
2018-07-08T02:18:00.153Z,85.11
2018-07-08T02:18:59.655Z,84.67
2018-07-08T02:20:56.720Z,85.01
2018-07-08T02:21:56.758Z,85.34
2018-07-08T02:23:55.697Z,85.58
2018-07-08T02:24:54.677Z,86.07
2018-07-08T02:26:53.164Z,86.35
2018-07-08T02:27:52.616Z,86.35
2018-07-08T02:29:50.792Z,86.16
2018-07-08T02:30:51.594Z,86.64
2018-07-08T02:32:48.703Z,87.31
2018-07-08T02:33:47.754Z,87.21
2018-07-08T02:35:44.632Z,86.93
2018-07-08T02:36:43.666Z,87.02
2018-07-08T02:38:39.677Z,86.74
2018-07-08T02:39:40.099Z,86.83
2018-07-08T02:41:36.013Z,87.12
2018-07-08T02:42:35.507Z,87.31
2018-07-08T02:44:35.470Z,87.31
2018-07-08T02:45:33.636Z,87.31
2018-07-08T02:47:31.575Z,87.21
2018-07-08T02:48:31.565Z,87.50
2018-07-08T02:50:30.030Z,86.83
2018-07-08T02:51:30.520Z,87.60
2018-07-08T02:53:27.647Z,87.79
2018-07-08T02:54:27.648Z,87.88
2018-07-08T02:56:28.074Z,87.74
2018-07-08T02:57:28.599Z,87.94
2018-07-08T02:59:28.548Z,88.17
2018-07-08T03:00:28.546Z,88.84
2018-07-08T03:02:30.477Z,88.61
2018-07-08T03:03:28.983Z,89.09
2018-07-08T03:05:27.456Z,89.09
2018-07-08T03:06:27.936Z,89.57
2018-07-08T03:08:28.077Z,90.23
2018-07-08T03:09:28.045Z,90.72
2018-07-08T03:11:25.989Z,90.53
2018-07-08T03:12:25.992Z,90.72
2018-07-08T03:14:24.413Z,90.91
2018-07-08T03:15:23.591Z,90.81
2018-07-08T03:17:21.066Z,91.00
2018-07-08T03:18:19.544Z,90.91
2018-07-08T03:20:20.016Z,91.39
2018-07-08T03:21:20.011Z,91.49
2018-07-08T03:23:18.461Z,91.67
2018-07-08T03:24:17.944Z,91.67
2018-07-08T03:26:14.394Z,91.96
2018-07-08T03:27:14.397Z,91.67
2018-07-08T03:29:11.807Z,91.58
2018-07-08T03:30:11.841Z,91.49
2018-07-08T03:32:08.317Z,92.44
2018-07-08T03:33:09.200Z,92.35
2018-07-08T03:35:06.227Z,92.44
2018-07-08T03:36:05.885Z,92.73
2018-07-08T03:38:04.840Z,92.63
2018-07-08T03:39:03.847Z,93.02
2018-07-08T03:41:01.842Z,92.63
2018-07-08T03:42:01.754Z,92.54
2018-07-08T03:44:01.206Z,92.63
2018-07-08T03:44:59.877Z,92.73
2018-07-08T03:46:57.874Z,93.21
2018-07-08T03:47:58.345Z,93.11
2018-07-08T03:49:55.921Z,93.40
2018-07-08T03:50:55.935Z,93.21
2018-07-08T03:52:53.962Z,93.30
2018-07-08T03:53:55.416Z,93.49
2018-07-08T03:55:54.872Z,93.49
2018-07-08T03:56:54.342Z,93.78
2018-07-08T03:58:52.831Z,93.49
2018-07-08T03:59:52.260Z,93.11
2018-07-08T04:01:54.213Z,93.21
2018-07-08T04:02:52.705Z,93.21
2018-07-08T04:04:51.151Z,93.11
2018-07-08T04:05:51.182Z,93.59
2018-07-08T04:07:47.123Z,94.35
2018-07-08T04:08:46.590Z,94.17
2018-07-08T04:10:42.525Z,94.17
2018-07-08T04:11:42.550Z,94.26
2018-07-08T04:13:38.516Z,95.03
2018-07-08T04:14:38.490Z,94.45
2018-07-08T04:16:36.968Z,94.35
2018-07-08T04:17:36.432Z,94.55
2018-07-08T04:19:36.902Z,94.17
2018-07-08T04:20:37.394Z,94.07
2018-07-08T04:22:35.002Z,94.55
2018-07-08T04:23:35.008Z,94.64
2018-07-08T04:25:35.476Z,94.74
2018-07-08T04:26:36.969Z,94.93
2018-07-08T04:28:34.393Z,94.93
2018-07-08T04:29:34.460Z,94.93
2018-07-08T04:31:31.682Z,95.12
2018-07-08T04:32:32.503Z,95.12
2018-07-08T04:34:30.115Z,94.93
2018-07-08T04:35:29.587Z,94.84
2018-07-08T04:37:27.578Z,94.74
2018-07-08T04:38:27.534Z,94.55
2018-07-08T04:40:29.412Z,94.64
2018-07-08T04:41:28.992Z,94.35
2018-07-08T04:43:28.492Z,93.78
2018-07-08T04:44:28.489Z,94.07
2018-07-08T04:46:26.450Z,93.40
2018-07-08T04:47:26.947Z,93.21
2018-07-08T04:49:22.444Z,91.91
2018-07-08T04:50:22.412Z,90.14
2018-07-08T04:52:20.497Z,86.44
2018-07-08T04:53:20.500Z,86.05
2018-07-08T04:55:16.964Z,85.00
2018-07-08T04:56:16.455Z,83.94
2018-07-08T04:58:15.484Z,82.16
2018-07-08T04:59:14.382Z,82.26
2018-07-08T05:01:13.391Z,80.96
2018-07-08T05:02:12.511Z,79.71
2018-07-08T05:04:11.501Z,77.83
2018-07-08T05:05:10.445Z,76.86
2018-07-08T05:07:06.403Z,75.46
2018-07-08T05:08:06.432Z,74.30
2018-07-08T05:10:02.406Z,72.42
2018-07-08T05:11:02.883Z,72.38
2018-07-08T05:12:58.326Z,72.48
2018-07-08T05:13:58.457Z,72.86
2018-07-08T05:15:59.275Z,72.58
2018-07-08T05:16:58.745Z,73.25
2018-07-08T05:18:56.705Z,73.50
2018-07-08T05:19:56.693Z,73.50
2018-07-08T05:21:58.091Z,73.25
2018-07-08T05:22:57.164Z,73.25
2018-07-08T05:24:54.184Z,73.06
2018-07-08T05:25:54.103Z,72.67
2018-07-08T05:27:53.817Z,71.36
2018-07-08T05:28:53.833Z,71.08
2018-07-08T05:30:54.305Z,71.08
2018-07-08T05:31:54.284Z,71.04
2018-07-08T05:33:52.787Z,71.42
2018-07-08T05:34:52.223Z,71.61
2018-07-08T05:36:53.180Z,70.94
2018-07-08T05:37:53.205Z,71.04
2018-07-08T05:39:53.158Z,71.23
2018-07-08T05:40:53.134Z,71.08
2018-07-08T05:42:53.603Z,69.82
2018-07-08T05:43:53.636Z,69.15
2018-07-08T05:45:54.564Z,69.82
2018-07-08T05:46:54.094Z,70.21
2018-07-08T05:48:54.584Z,69.24
2018-07-08T05:49:54.551Z,69.24
2018-07-08T05:51:55.515Z,68.03
2018-07-08T05:52:54.982Z,68.29
2018-07-08T05:54:54.455Z,69.06
2018-07-08T05:55:53.108Z,69.12
2018-07-08T05:57:49.126Z,69.69
2018-07-08T05:58:50.141Z,71.19
2018-07-08T06:00:51.113Z,70.84
2018-07-08T06:01:49.563Z,71.91
2018-07-08T06:03:50.018Z,71.14
2018-07-08T06:04:50.000Z,71.91
2018-07-08T06:06:48.478Z,71.42
2018-07-08T06:07:48.024Z,71.81
2018-07-08T06:09:45.940Z,71.91
2018-07-08T06:10:44.962Z,71.42
2018-07-08T06:12:43.394Z,70.84
2018-07-08T06:13:42.881Z,70.84
2018-07-08T06:15:40.973Z,71.71
2018-07-08T06:16:41.869Z,71.71
2018-07-08T06:18:41.955Z,71.81
2018-07-08T06:19:41.396Z,71.81
2018-07-08T06:21:37.347Z,70.46
2018-07-08T06:22:37.904Z,70.46
2018-07-08T06:24:35.828Z,70.37
2018-07-08T06:25:35.872Z,71.14
2018-07-08T06:27:34.775Z,70.84
2018-07-08T06:28:33.460Z,70.65
2018-07-08T06:30:29.439Z,70.50
2018-07-08T06:31:30.419Z,70.59
2018-07-08T06:33:28.373Z,68.96
2018-07-08T06:34:27.544Z,69.15
2018-07-08T06:36:28.503Z,69.53
2018-07-08T06:37:28.043Z,69.63
2018-07-08T06:39:23.974Z,68.44
2018-07-08T06:40:23.956Z,69.31
2018-07-08T06:42:21.975Z,68.86
2018-07-08T06:43:22.425Z,68.09
2018-07-08T06:45:22.386Z,67.96
2018-07-08T06:46:22.395Z,67.77
2018-07-08T06:48:19.344Z,67.86
2018-07-08T06:49:18.312Z,68.09
2018-07-08T06:51:17.276Z,67.22
2018-07-08T06:52:16.288Z,67.13
2018-07-08T06:54:14.368Z,68.44
2018-07-08T06:55:15.087Z,69.27
2018-07-08T06:57:12.396Z,68.35
2018-07-08T06:58:14.229Z,67.96
2018-07-08T07:00:10.391Z,67.68
2018-07-08T07:01:11.885Z,67.48
2018-07-08T07:03:10.787Z,66.91
2018-07-08T07:04:10.961Z,65.75
2018-07-08T07:06:09.790Z,66.61
2018-07-08T07:07:08.727Z,66.42
2018-07-08T07:09:07.213Z,65.08
2018-07-08T07:10:07.731Z,64.50
2018-07-08T07:12:07.170Z,65.66
2018-07-08T07:13:07.689Z,66.81
2018-07-08T07:15:03.089Z,65.17
2018-07-08T07:16:03.617Z,64.50
2018-07-08T07:18:01.065Z,64.12
2018-07-08T07:19:02.569Z,64.25
2018-07-08T07:20:57.034Z,61.46
2018-07-08T07:21:57.032Z,60.08
2018-07-08T07:23:55.501Z,60.56
2018-07-08T07:24:55.995Z,60.66
2018-07-08T07:26:53.677Z,60.27
2018-07-08T07:27:53.645Z,60.14
2018-07-08T07:29:57.180Z,59.28
2018-07-08T07:30:58.072Z,59.57
2018-07-08T07:32:57.565Z,58.06
2018-07-08T07:33:57.537Z,57.93
2018-07-08T07:35:58.025Z,57.39
2018-07-08T07:36:58.052Z,57.10
2018-07-08T07:38:56.520Z,57.03
2018-07-08T07:39:55.936Z,57.90
2018-07-08T07:41:55.436Z,58.95
2018-07-08T07:42:54.900Z,58.67
2018-07-08T07:44:54.608Z,58.86
2018-07-08T07:45:55.593Z,58.86
2018-07-08T07:47:54.026Z,59.24
2018-07-08T07:48:53.520Z,59.44
2018-07-08T07:50:48.833Z,60.97
2018-07-08T07:53:49.976Z,59.69
2018-07-08T07:54:47.328Z,58.73
2018-07-08T07:58:33.034Z,56.07
2018-07-08T07:59:29.593Z,56.07
2018-07-08T08:01:59.466Z,52.42
2018-07-08T08:02:58.957Z,50.97
2018-07-08T08:05:00.485Z,51.74
2018-07-08T08:07:17.857Z,51.93
2018-07-08T08:08:17.430Z,51.93
2018-07-08T08:10:18.387Z,51.74
2018-07-08T08:11:14.333Z,52.51
2018-07-08T08:13:13.817Z,52.15
2018-07-08T08:14:12.272Z,51.86
2018-07-08T08:16:09.150Z,51.57
2018-07-08T08:17:08.269Z,51.57
2018-07-08T08:19:04.230Z,51.76
2018-07-08T08:20:04.271Z,51.67
2018-07-08T08:22:01.212Z,51.02
2018-07-08T08:23:01.218Z,50.32
2018-07-08T08:25:04.177Z,52.44
2018-07-08T08:25:57.250Z,52.63
2018-07-08T08:27:52.707Z,53.69
2018-07-08T08:28:52.142Z,53.69
2018-07-08T08:30:48.145Z,54.46
2018-07-08T08:34:48.508Z,53.62
2018-07-08T08:35:47.444Z,54.39
2018-07-08T08:37:44.960Z,55.33
2018-07-08T08:38:43.921Z,55.71
2018-07-08T08:40:39.346Z,55.43
2018-07-08T08:41:39.358Z,56.10
2018-07-08T08:43:40.839Z,54.78
2018-07-08T08:44:40.188Z,54.39
2018-07-08T08:46:38.170Z,54.78
2018-07-08T08:48:55.032Z,53.72
2018-07-08T08:49:54.106Z,53.84
2018-07-08T08:51:54.589Z,51.60
2018-07-08T08:52:54.611Z,51.89
2018-07-08T08:54:53.499Z,51.89
2018-07-08T08:55:52.484Z,51.89
2018-07-08T08:57:50.960Z,52.47
2018-07-08T08:58:50.465Z,52.18
2018-07-08T09:00:49.457Z,51.70
2018-07-08T09:01:48.560Z,50.73
2018-07-08T09:03:46.665Z,48.83
2018-07-08T09:04:46.530Z,48.81
2018-07-08T09:06:42.509Z,48.83
2018-07-08T09:07:42.497Z,48.35
2018-07-08T09:09:39.471Z,49.12
2018-07-08T09:10:38.988Z,48.64
2018-07-08T09:12:34.443Z,49.12
2018-07-08T09:13:34.910Z,49.79
2018-07-08T09:15:34.909Z,49.02
2018-07-08T09:16:34.934Z,48.38
2018-07-08T09:18:30.873Z,47.60
2018-07-08T09:19:31.353Z,47.70
2018-07-08T09:21:28.736Z,47.51
2018-07-08T09:22:28.748Z,45.68
2018-07-08T09:24:29.285Z,46.25
2018-07-08T09:25:29.288Z,46.64
2018-07-08T09:27:27.686Z,46.55
2018-07-08T09:28:27.342Z,46.93
2018-07-08T09:30:38.357Z,48.16
2018-07-08T09:31:38.862Z,47.58
2018-07-08T09:33:34.567Z,46.71
2018-07-08T09:34:34.064Z,46.81
2018-07-08T09:38:12.362Z,45.39
2018-07-08T09:39:12.510Z,45.79
2018-07-08T09:41:25.952Z,45.51
2018-07-08T09:42:27.864Z,45.12
2018-07-08T09:44:23.873Z,46.18
2018-07-08T09:45:23.909Z,45.89
2018-07-08T09:47:20.853Z,45.12
2018-07-08T09:48:20.859Z,44.06
2018-07-08T09:50:19.812Z,42.71
2018-07-08T09:51:19.886Z,42.71
2018-07-08T09:53:15.870Z,43.48
2018-07-08T09:54:15.771Z,43.50
2018-07-08T09:56:18.244Z,43.70
2018-07-08T09:57:16.277Z,42.25
2018-07-08T09:59:12.200Z,43.48
2018-07-08T10:00:12.191Z,43.67
2018-07-08T10:02:09.130Z,43.96
2018-07-08T10:03:09.144Z,44.15
2018-07-08T10:05:08.520Z,43.10
2018-07-08T10:06:07.107Z,43.50
2018-07-08T10:08:03.225Z,43.89
2018-07-08T10:09:03.234Z,42.85
2018-07-08T10:11:03.739Z,42.56
2018-07-08T10:12:03.704Z,42.66
2018-07-08T10:14:00.287Z,42.46
2018-07-08T10:14:59.693Z,42.08
2018-07-08T10:17:00.131Z,41.98
2018-07-08T10:18:00.107Z,41.98
2018-07-08T10:21:31.822Z,42.08
2018-07-08T10:22:31.712Z,41.57
2018-07-08T10:24:27.684Z,42.35
2018-07-08T10:25:27.784Z,42.46
2018-07-08T10:27:25.642Z,41.60
2018-07-08T10:28:25.633Z,41.98
2018-07-08T10:30:24.187Z,40.82
2018-07-08T10:31:23.583Z,40.53
2018-07-08T10:33:22.527Z,41.11
2018-07-08T10:34:21.724Z,41.03
2018-07-08T10:36:17.731Z,40.17
2018-07-08T10:37:19.174Z,39.97
2018-07-08T10:39:27.943Z,39.49
2018-07-08T10:40:13.633Z,39.03
2018-07-08T10:42:12.108Z,39.41
2018-07-08T10:43:11.625Z,39.80
2018-07-08T10:45:09.544Z,40.67
2018-07-08T10:46:09.553Z,41.35
2018-07-08T10:48:08.067Z,40.77
2018-07-08T10:49:08.526Z,40.28
2018-07-08T10:51:05.131Z,39.22
2018-07-08T10:52:03.659Z,39.34
2018-07-08T10:54:02.124Z,38.83
2018-07-08T10:55:01.760Z,39.12
2018-07-08T10:57:00.239Z,39.32
2018-07-08T10:57:59.803Z,39.32
2018-07-08T10:59:58.203Z,39.80
2018-07-08T11:00:57.861Z,39.61
2018-07-08T11:02:57.262Z,39.70
2018-07-08T11:03:56.324Z,39.51
2018-07-08T11:05:54.795Z,38.91
2018-07-08T11:06:54.778Z,38.53
2018-07-08T11:08:53.492Z,37.85
2018-07-08T11:09:52.039Z,38.33
2018-07-08T11:11:49.935Z,39.01
2018-07-08T11:12:49.946Z,39.03
2018-07-08T11:14:48.105Z,38.45
2018-07-08T11:15:48.094Z,38.83
2018-07-08T11:17:46.566Z,38.93
2018-07-08T11:18:46.244Z,38.06
2018-07-08T11:20:44.304Z,37.96
2018-07-08T11:21:44.175Z,38.06
2018-07-08T11:23:40.151Z,37.87
2018-07-08T11:24:40.666Z,38.06
2018-07-08T11:26:38.099Z,39.12
2018-07-08T11:27:38.588Z,40.19
2018-07-08T11:29:36.576Z,40.38
2018-07-08T11:30:36.059Z,39.99
2018-07-08T11:32:33.999Z,40.67
2018-07-08T11:33:34.509Z,40.67
2018-07-08T11:35:31.980Z,39.99
2018-07-08T11:36:32.493Z,39.41
2018-07-08T11:38:31.429Z,39.51
2018-07-08T11:39:29.879Z,39.72
2018-07-08T11:41:29.343Z,39.04
2018-07-08T11:42:28.018Z,38.46
2018-07-08T11:44:23.970Z,39.04
2018-07-08T11:45:23.991Z,39.34
2018-07-08T11:47:20.455Z,39.43
2018-07-08T11:48:20.445Z,39.72
2018-07-08T11:50:15.906Z,39.62
2018-07-08T11:51:15.915Z,39.92
2018-07-08T11:53:13.901Z,39.64
2018-07-08T11:54:13.879Z,39.45
2018-07-08T11:56:12.339Z,39.26
2018-07-08T11:57:11.825Z,39.74
2018-07-08T11:59:09.928Z,39.74
2018-07-08T12:00:09.961Z,39.36
2018-07-08T12:02:07.926Z,39.06
2018-07-08T12:03:07.912Z,39.64
2018-07-08T12:05:06.119Z,39.36
2018-07-08T12:06:06.035Z,39.36
2018-07-08T12:08:04.019Z,39.36
2018-07-08T12:09:03.976Z,39.18
2018-07-08T12:11:02.945Z,38.41
2018-07-08T12:12:01.935Z,38.12
2018-07-08T12:13:59.939Z,38.89
2018-07-08T12:14:59.906Z,38.79
2018-07-08T12:16:58.876Z,38.50
2018-07-08T12:17:57.850Z,38.41
2018-07-08T12:19:56.363Z,38.89
2018-07-08T12:20:56.004Z,38.31
2018-07-08T12:22:53.979Z,38.02
2018-07-08T12:23:53.989Z,38.02
2018-07-08T12:25:51.975Z,38.31
2018-07-08T12:26:51.931Z,38.41
2018-07-08T12:28:48.950Z,38.39
2018-07-08T12:29:47.860Z,39.09
2018-07-08T12:31:43.869Z,39.57
2018-07-08T12:32:43.826Z,39.76
2018-07-08T12:34:42.784Z,40.15
2018-07-08T12:35:41.785Z,39.78
2018-07-08T12:37:39.244Z,40.83
2018-07-08T12:38:37.817Z,41.39
2018-07-08T12:40:35.737Z,42.08
2018-07-08T12:41:36.242Z,41.79
2018-07-08T12:43:31.719Z,41.99
2018-07-08T12:44:31.752Z,41.99
2018-07-08T12:46:29.640Z,41.99
2018-07-08T12:47:29.727Z,41.60
2018-07-08T12:49:28.619Z,41.21
2018-07-08T12:50:28.608Z,41.52
2018-07-08T12:52:23.574Z,40.83
2018-07-08T12:53:23.601Z,41.31
2018-07-08T12:55:22.064Z,41.60
2018-07-08T12:56:21.744Z,41.62
2018-07-08T12:58:20.204Z,41.91
2018-07-08T12:59:20.227Z,41.91
2018-07-08T13:01:18.155Z,42.30
2018-07-08T13:02:18.662Z,42.49
2018-07-08T13:04:18.197Z,42.86
2018-07-08T13:05:16.772Z,43.44
2018-07-08T13:07:12.426Z,42.37
2018-07-08T13:08:11.895Z,42.47
2018-07-08T13:10:10.053Z,41.79
2018-07-08T13:11:10.034Z,41.91
2018-07-08T13:13:05.979Z,42.20
2018-07-08T13:14:06.006Z,41.24
2018-07-08T13:16:03.468Z,41.14
2018-07-08T13:17:02.970Z,41.60
2018-07-08T13:18:59.437Z,41.91
2018-07-08T13:19:59.455Z,42.00
2018-07-08T13:22:00.424Z,41.83
2018-07-08T13:23:00.403Z,42.03
2018-07-08T13:24:58.390Z,42.03
2018-07-08T13:25:59.935Z,41.16
2018-07-08T13:27:56.356Z,42.03
2018-07-08T13:28:56.871Z,42.22
2018-07-08T13:30:53.358Z,42.13
2018-07-08T13:31:53.382Z,42.03
2018-07-08T13:33:50.283Z,42.51
2018-07-08T13:34:50.777Z,42.71
2018-07-08T13:36:48.234Z,42.80
2018-07-08T13:37:48.223Z,42.61
2018-07-08T13:39:47.076Z,42.51
2018-07-08T13:40:47.117Z,43.00
2018-07-08T13:42:45.153Z,42.05
2018-07-08T13:43:45.163Z,42.24
2018-07-08T13:45:43.157Z,42.03
2018-07-08T13:46:43.120Z,42.72
2018-07-08T13:48:42.097Z,42.71
2018-07-08T13:49:41.256Z,43.00
2018-07-08T13:51:39.232Z,43.68
2018-07-08T13:52:39.045Z,43.77
2018-07-08T13:54:37.246Z,43.50
2018-07-08T13:55:37.427Z,42.24
2018-07-08T13:57:36.189Z,40.99
2018-07-08T13:59:52.168Z,39.82
2018-07-08T14:00:51.159Z,39.04
2018-07-08T14:02:47.180Z,40.67
2018-07-08T14:03:47.169Z,41.16
2018-07-08T14:05:42.604Z,41.93
2018-07-08T14:06:41.642Z,42.03
2018-07-08T14:08:40.101Z,41.83
2018-07-08T14:09:39.600Z,41.83
2018-07-08T14:11:40.059Z,41.66
2018-07-08T14:12:40.044Z,42.05
2018-07-08T14:14:38.046Z,41.95
2018-07-08T14:15:38.520Z,41.17
2018-07-08T14:17:47.502Z,41.27
2018-07-08T14:18:45.743Z,40.89
2018-07-08T14:20:41.843Z,41.08
2018-07-08T14:21:41.707Z,41.30
2018-07-08T14:23:37.678Z,40.59
2018-07-08T14:24:37.693Z,40.40
2018-07-08T14:26:33.737Z,40.99
2018-07-08T14:27:33.639Z,41.08
2018-07-08T14:29:30.657Z,41.10
2018-07-08T14:30:29.590Z,41.17
2018-07-08T14:32:28.078Z,42.14
2018-07-08T14:33:28.570Z,41.66
2018-07-08T14:35:26.186Z,41.56
2018-07-08T14:36:26.695Z,41.95
2018-07-08T14:38:24.661Z,41.37
2018-07-08T14:39:23.803Z,41.37
2018-07-08T14:41:19.754Z,41.97
2018-07-08T14:42:19.753Z,41.95
2018-07-08T14:44:15.719Z,42.34
2018-07-08T14:45:15.724Z,42.05
2018-07-08T14:47:16.789Z,41.17
2018-07-08T14:48:16.184Z,41.56
2018-07-08T14:50:12.392Z,40.79
2018-07-08T14:51:12.184Z,40.69
2018-07-08T14:53:11.352Z,39.92
2018-07-08T14:54:10.147Z,40.31
2018-07-08T14:56:08.146Z,39.74
2018-07-08T14:57:11.030Z,40.40
2018-07-08T14:59:02.795Z,40.91
2018-07-08T15:00:02.691Z,41.30
2018-07-08T15:01:58.675Z,41.86
2018-07-08T15:02:59.706Z,41.86
2018-07-08T15:04:56.614Z,41.95
2018-07-08T15:05:56.620Z,42.24
2018-07-08T15:07:54.531Z,42.07
2018-07-08T15:08:55.520Z,41.88
2018-07-08T15:10:51.631Z,41.88
2018-07-08T15:11:51.587Z,41.97
2018-07-08T15:13:50.055Z,41.49
2018-07-08T15:14:49.555Z,41.10
2018-07-08T15:16:45.515Z,41.58
2018-07-08T15:17:45.509Z,41.58
2018-07-08T15:19:41.517Z,41.88
2018-07-08T15:20:41.483Z,42.07
2018-07-08T15:22:40.461Z,42.17
2018-07-08T15:23:39.472Z,42.26
2018-07-08T15:25:37.458Z,41.49
2018-07-08T15:26:37.956Z,41.88
2018-07-08T15:28:36.473Z,41.68
2018-07-08T15:29:35.654Z,41.78
2018-07-08T15:31:41.109Z,42.17
2018-07-08T15:32:40.405Z,41.49
2018-07-08T15:34:39.345Z,41.20
2018-07-08T15:35:39.332Z,41.88
2018-07-08T15:37:38.876Z,41.00
2018-07-08T15:38:38.835Z,40.52
2018-07-08T15:40:35.828Z,40.92
2018-07-08T15:41:35.262Z,40.92
2018-07-08T15:43:31.675Z,40.92
2018-07-08T15:44:32.375Z,41.10
2018-07-08T15:46:30.647Z,41.10
2018-07-08T15:47:31.213Z,40.91
2018-07-08T15:49:30.821Z,40.71
2018-07-08T15:51:43.284Z,41.02
2018-07-08T15:52:42.755Z,41.31
2018-07-08T15:54:38.226Z,41.12
2018-07-08T15:55:38.223Z,40.92
2018-07-08T15:57:35.195Z,41.31
2018-07-08T15:58:34.678Z,41.02
2018-07-08T16:00:30.132Z,41.02
2018-07-08T16:01:30.145Z,41.51
2018-07-08T16:03:26.113Z,40.73
2018-07-08T16:04:26.119Z,40.44
2018-07-08T16:06:24.576Z,40.92
2018-07-08T16:07:24.075Z,41.02
2018-07-08T16:09:20.554Z,41.12
2018-07-08T16:10:21.464Z,41.12
2018-07-08T16:12:16.012Z,41.51
2018-07-08T16:13:16.031Z,41.51
2018-07-08T16:15:15.033Z,41.80
2018-07-08T16:16:13.963Z,41.99
2018-07-08T16:18:15.003Z,41.80
2018-07-08T16:19:14.433Z,41.70
2018-07-08T16:21:12.407Z,41.89
2018-07-08T16:22:12.895Z,41.80
2018-07-08T16:24:08.365Z,41.12
2018-07-08T16:25:08.346Z,41.22
2018-07-08T16:27:04.380Z,41.02
2018-07-08T16:28:04.291Z,40.44
2018-07-08T16:30:01.287Z,41.12
2018-07-08T16:31:01.332Z,41.02
2018-07-08T16:32:57.270Z,41.31
2018-07-08T16:33:57.281Z,41.41
2018-07-08T16:35:56.240Z,41.41
2018-07-08T16:36:56.221Z,41.51
2018-07-08T16:38:55.869Z,41.12
2018-07-08T16:39:55.880Z,41.12
2018-07-08T16:41:54.047Z,41.12
2018-07-08T16:42:54.043Z,41.14
2018-07-08T16:44:51.476Z,40.26
2018-07-08T16:45:50.973Z,40.48
2018-07-08T16:47:49.937Z,39.41
2018-07-08T16:48:49.152Z,39.80
2018-07-08T16:50:45.123Z,38.95
2018-07-08T16:51:45.110Z,38.46
2018-07-08T16:53:41.593Z,38.39
2018-07-08T16:54:41.103Z,38.09
2018-07-08T16:56:39.250Z,38.03
2018-07-08T16:57:39.277Z,37.08
2018-07-08T16:59:35.232Z,36.14
2018-07-08T17:01:51.202Z,35.46
2018-07-08T17:02:52.246Z,35.16
2018-07-08T17:04:47.178Z,36.08
2018-07-08T17:05:47.184Z,37.16
2018-07-08T17:07:43.155Z,38.29
2018-07-08T17:08:43.154Z,38.56
2018-07-08T17:10:39.128Z,39.70
2018-07-08T17:11:39.118Z,40.00
2018-07-08T17:15:11.056Z,40.66
2018-07-08T17:16:11.094Z,40.95
2018-07-08T17:18:06.616Z,40.75
2018-07-08T17:19:05.669Z,41.05
2018-07-08T17:21:02.646Z,41.31
2018-07-08T17:22:01.697Z,41.12
2018-07-08T17:23:58.002Z,41.51
2018-07-08T17:24:58.133Z,41.41
2018-07-08T17:26:54.215Z,41.41
2018-07-08T17:27:53.975Z,41.89
2018-07-08T17:29:48.358Z,41.02
2018-07-08T17:30:48.823Z,41.51
2018-07-08T17:32:46.914Z,41.89
2018-07-08T17:33:46.514Z,41.61
2018-07-08T17:37:19.587Z,41.61
2018-07-08T17:39:40.010Z,41.70
2018-07-08T17:40:36.839Z,41.51
2018-07-08T17:42:31.444Z,42.19
2018-07-08T17:43:32.240Z,41.70
2018-07-08T17:45:28.412Z,41.89
2018-07-08T17:46:27.440Z,41.51
2018-07-08T17:50:04.697Z,41.78
2018-07-08T17:51:05.610Z,41.97
2018-07-08T17:53:00.649Z,41.88
2018-07-08T17:54:01.055Z,41.88
2018-07-08T17:57:35.152Z,41.49
2018-07-08T18:00:46.405Z,41.58
2018-07-08T18:01:44.670Z,41.78
2018-07-08T18:03:42.663Z,41.68
2018-07-08T18:04:42.655Z,41.20
2018-07-08T18:06:40.615Z,41.20
2018-07-08T18:07:40.621Z,41.68
2018-07-08T18:09:36.630Z,41.88
2018-07-08T18:10:36.608Z,42.17
2018-07-08T18:15:31.226Z,42.26
2018-07-08T18:16:32.160Z,41.86
2018-07-08T18:18:31.134Z,42.24
2018-07-08T18:19:30.159Z,42.05
2018-07-08T18:21:26.778Z,41.95
2018-07-08T18:22:25.261Z,42.05
2018-07-08T18:24:21.246Z,41.97
2018-07-08T18:25:21.281Z,41.97
2018-07-08T18:27:18.183Z,41.70
2018-07-08T18:28:18.190Z,41.12
2018-07-08T18:30:14.182Z,41.39
2018-07-08T18:31:14.221Z,41.88
2018-07-08T18:33:10.180Z,41.68
2018-07-08T18:34:10.202Z,41.95
2018-07-08T18:36:08.110Z,42.14
2018-07-08T18:37:06.158Z,42.05
2018-07-08T18:39:02.609Z,42.14
2018-07-08T18:40:02.130Z,41.86
2018-07-08T18:42:00.077Z,42.22
2018-07-08T18:43:02.075Z,42.03
2018-07-08T18:44:58.610Z,41.93
2018-07-08T18:45:56.131Z,41.93
2018-07-08T18:47:52.718Z,42.22
2018-07-08T18:48:53.017Z,42.13
2018-07-08T18:50:48.007Z,42.41
2018-07-08T18:51:48.003Z,42.13
2018-07-08T18:53:44.902Z,42.41
2018-07-08T18:54:42.554Z,42.41
2018-07-08T18:56:38.514Z,42.61
2018-07-08T18:57:38.782Z,42.80
2018-07-08T18:59:36.436Z,42.51
2018-07-08T19:00:36.443Z,42.80
2018-07-08T19:02:33.374Z,43.00
2018-07-08T19:03:32.536Z,43.48
2018-07-08T19:05:55.424Z,43.29
2018-07-08T19:06:55.321Z,43.87
2018-07-08T19:09:03.949Z,43.55
2018-07-08T19:10:04.002Z,43.55
2018-07-08T19:12:01.984Z,43.85
2018-07-08T19:13:00.956Z,44.04
2018-07-08T19:14:56.952Z,44.62
2018-07-08T19:15:57.930Z,44.43
2018-07-08T19:17:52.953Z,44.43
2018-07-08T19:18:52.918Z,44.43
2018-07-08T19:20:49.874Z,45.30
2018-07-08T19:21:49.786Z,45.08
2018-07-08T19:23:45.778Z,44.98
2018-07-08T19:24:45.856Z,44.98
2018-07-08T19:26:40.222Z,44.98
2018-07-08T19:27:40.265Z,44.70
2018-07-08T19:29:36.335Z,45.28
2018-07-08T19:30:36.272Z,45.28
2018-07-08T19:32:34.137Z,45.18
2018-07-08T19:33:32.156Z,45.18
2018-07-08T19:35:28.166Z,45.28
2018-07-08T19:36:28.097Z,45.47
2018-07-08T19:38:22.585Z,45.57
2018-07-08T19:39:22.668Z,45.66